• Join FlightAware (Why Join?)
  • Login
  • US Flag 
11:57PM EST


 

Airport Tracker/Info


-or-


 

Live Flight TrackerFlight Track Log ✈ CCA4482 ✈ 08-Jul-2013 ✈ ZUJZ / JZH - ZUUU / CTU

Flight Track Log - Related Links

Times and Time Zones

All times are in EDT time to prevent confusion due to time zone crossing. See the CCA4482 flight status page for this flight to view local times or setup timezone preferences in your user account.

Time Position Orientation Groundspeed Altitude Reporting Facility
EDT Latitude Longitude Course Direction KTS MPH feet Rate Location/Type
09:29AM 32.1534 103.7660 174° South  Level Estimated
09:30AM 32.0993 103.7723 174° South  Level Estimated
09:31AM 32.0452 103.7786 174° South  Level Estimated
09:32AM 31.9911 103.7849 174° South  Level Estimated
09:33AM 31.9369 103.7912 174° South  Level Estimated
09:34AM 31.8828 103.7975 174° South  Level Estimated
09:35AM 31.8287 103.8038 174° South  Level Estimated
09:36AM 31.7745 103.8101 174° South  Level Estimated
09:37AM 31.7204 103.8164 174° South  Level Estimated
09:38AM 31.6663 103.8226 174° South  Level Estimated
09:39AM 31.6122 103.8289 174° South  Level Estimated
09:40AM 31.5580 103.8352 174° South  Level Estimated
09:41AM 31.5039 103.8414 174° South  Level Estimated
09:42AM 31.4498 103.8476 174° South  Level Estimated
09:43AM 31.3956 103.8539 174° South  Level Estimated
09:44AM 31.3415 103.8601 174° South  Level Estimated
09:45AM 31.2874 103.8663 174° South  Level Estimated
09:46AM 31.2332 103.8725 174° South  Level Estimated
09:47AM 31.1791 103.8787 174° South  Level Estimated
09:48AM 31.1250 103.8849 174° South  Level Estimated
09:49AM 31.0709 103.8911 174° South  Level Estimated
09:50AM 31.0167 103.8973 174° South  Level Estimated
09:51AM 30.9626 103.9035 174° South  Level Estimated
09:52AM 30.9085 103.9096 174° South  Level Estimated
09:53AM 30.8543 103.9158 174° South  Level Estimated
09:54AM 30.8002 103.9220 174° South  Level Estimated
09:55AM 30.7461 103.9281 174° South  Level Estimated
09:56AM 30.6919 103.9342 174° South  Level Estimated
09:57AM 30.6378 103.9404 174° South  Level Estimated
09:58AM 30.5837 103.9465 174° South  Level Estimated
09:59AM 30.5785 103.9471 174° South  Level Estimated
10:00AM 30.5785 103.9471 240° Southwest  Level Estimated
10:01AM 30.5785 103.9471 240° Southwest  Level Estimated
10:02AM 30.5785 103.9471 240° Southwest  Level Estimated
10:03AM 30.5785 103.9471 240° Southwest  Level Estimated
10:04AM 30.5785 103.9471 240° Southwest  Level Estimated
10:05AM 30.5785 103.9471 240° Southwest  Level Estimated
10:06AM 30.5785 103.9471 240° Southwest  Level Estimated
10:07AM 30.5785 103.9471 240° Southwest  Level Estimated
10:08AM 30.5785 103.9471 240° Southwest  Level Estimated
10:09AM 30.5785 103.9471 240° Southwest  Level Estimated
10:10AM 30.5785 103.9471 240° Southwest  Level Estimated
10:11AM 30.5785 103.9471 240° Southwest  Level Estimated
10:12AM 30.5785 103.9471 240° Southwest  Level Estimated
10:13AM 30.5785 103.9471 240° Southwest  Level Estimated
10:14AM 30.5785 103.9471 240° Southwest  Level Estimated